sensor_id;sensor_type;location;lat;lon;timestamp;P1;durP1;ratioP1;P2;durP2;ratioP2
48487;SDS011;34289;48.572;13.378;2023-04-24T00:01:10;1.95;;;1.10;;
48487;SDS011;34289;48.572;13.378;2023-04-24T00:03:37;2.55;;;1.15;;
48487;SDS011;34289;48.572;13.378;2023-04-24T00:06:04;1.95;;;1.17;;
48487;SDS011;34289;48.572;13.378;2023-04-24T00:08:33;1.52;;;1.05;;
48487;SDS011;34289;48.572;13.378;2023-04-24T00:10:59;1.15;;;1.00;;
48487;SDS011;34289;48.572;13.378;2023-04-24T00:13:25;3.05;;;1.38;;
48487;SDS011;34289;48.572;13.378;2023-04-24T00:15:51;1.67;;;1.02;;
48487;SDS011;34289;48.572;13.378;2023-04-24T00:18:16;3.33;;;1.60;;
48487;SDS011;34289;48.572;13.378;2023-04-24T00:20:42;2.50;;;1.88;;
48487;SDS011;34289;48.572;13.378;2023-04-24T00:23:08;1.88;;;1.20;;
48487;SDS011;34289;48.572;13.378;2023-04-24T00:25:34;2.33;;;1.13;;
48487;SDS011;34289;48.572;13.378;2023-04-24T00:28:00;3.97;;;1.10;;
48487;SDS011;34289;48.572;13.378;2023-04-24T00:30:25;2.22;;;1.27;;
48487;SDS011;34289;48.572;13.378;2023-04-24T00:32:51;1.42;;;1.02;;
48487;SDS011;34289;48.572;13.378;2023-04-24T00:35:17;1.48;;;1.20;;
48487;SDS011;34289;48.572;13.378;2023-04-24T00:37:44;2.25;;;1.33;;
48487;SDS011;34289;48.572;13.378;2023-04-24T00:40:10;4.68;;;1.27;;
48487;SDS011;34289;48.572;13.378;2023-04-24T00:42:36;2.95;;;1.00;;
48487;SDS011;34289;48.572;13.378;2023-04-24T00:45:02;3.03;;;1.40;;
48487;SDS011;34289;48.572;13.378;2023-04-24T00:47:28;8.25;;;2.00;;
48487;SDS011;34289;48.572;13.378;2023-04-24T00:49:55;2.80;;;1.33;;
48487;SDS011;34289;48.572;13.378;2023-04-24T00:52:20;2.80;;;1.48;;
48487;SDS011;34289;48.572;13.378;2023-04-24T00:54:49;2.78;;;1.33;;
48487;SDS011;34289;48.572;13.378;2023-04-24T00:57:15;3.42;;;1.42;;
48487;SDS011;34289;48.572;13.378;2023-04-24T00:59:41;3.83;;;1.40;;
48487;SDS011;34289;48.572;13.378;2023-04-24T01:02:08;4.38;;;1.33;;
48487;SDS011;34289;48.572;13.378;2023-04-24T01:04:35;3.42;;;1.77;;
48487;SDS011;34289;48.572;13.378;2023-04-24T01:07:01;2.45;;;1.20;;
48487;SDS011;34289;48.572;13.378;2023-04-24T01:09:27;3.85;;;1.42;;
48487;SDS011;34289;48.572;13.378;2023-04-24T01:11:53;7.85;;;1.52;;
48487;SDS011;34289;48.572;13.378;2023-04-24T01:14:19;3.35;;;1.38;;
48487;SDS011;34289;48.572;13.378;2023-04-24T01:16:45;5.47;;;1.75;;
48487;SDS011;34289;48.572;13.378;2023-04-24T01:19:11;2.88;;;1.52;;
48487;SDS011;34289;48.572;13.378;2023-04-24T01:21:37;4.70;;;2.00;;
48487;SDS011;34289;48.572;13.378;2023-04-24T01:24:04;4.55;;;1.80;;
48487;SDS011;34289;48.572;13.378;2023-04-24T01:26:31;4.55;;;1.75;;
48487;SDS011;34289;48.572;13.378;2023-04-24T01:28:57;3.50;;;1.50;;
48487;SDS011;34289;48.572;13.378;2023-04-24T01:31:22;4.65;;;1.55;;
48487;SDS011;34289;48.572;13.378;2023-04-24T01:33:49;3.50;;;1.70;;
48487;SDS011;34289;48.572;13.378;2023-04-24T01:36:15;3.08;;;1.48;;
48487;SDS011;34289;48.572;13.378;2023-04-24T01:38:41;3.15;;;1.65;;
48487;SDS011;34289;48.572;13.378;2023-04-24T01:41:07;6.60;;;1.30;;
48487;SDS011;34289;48.572;13.378;2023-04-24T01:43:33;3.85;;;1.40;;
48487;SDS011;34289;48.572;13.378;2023-04-24T01:45:59;3.80;;;1.42;;
48487;SDS011;34289;48.572;13.378;2023-04-24T01:48:24;2.45;;;1.52;;
48487;SDS011;34289;48.572;13.378;2023-04-24T01:50:50;2.55;;;1.25;;
48487;SDS011;34289;48.572;13.378;2023-04-24T01:53:16;2.35;;;1.50;;
48487;SDS011;34289;48.572;13.378;2023-04-24T01:55:41;2.65;;;1.60;;
48487;SDS011;34289;48.572;13.378;2023-04-24T01:58:07;3.63;;;1.63;;
48487;SDS011;34289;48.572;13.378;2023-04-24T02:00:33;2.90;;;1.73;;
48487;SDS011;34289;48.572;13.378;2023-04-24T02:02:58;4.32;;;1.63;;
48487;SDS011;34289;48.572;13.378;2023-04-24T02:05:26;6.35;;;2.00;;
48487;SDS011;34289;48.572;13.378;2023-04-24T02:07:52;2.50;;;1.65;;
48487;SDS011;34289;48.572;13.378;2023-04-24T02:10:18;1.92;;;1.42;;
48487;SDS011;34289;48.572;13.378;2023-04-24T02:12:43;3.30;;;1.50;;
48487;SDS011;34289;48.572;13.378;2023-04-24T02:15:09;2.03;;;1.20;;
48487;SDS011;34289;48.572;13.378;2023-04-24T02:17:35;4.95;;;1.75;;
48487;SDS011;34289;48.572;13.378;2023-04-24T02:20:01;4.47;;;1.42;;
48487;SDS011;34289;48.572;13.378;2023-04-24T02:22:27;3.45;;;1.77;;
48487;SDS011;34289;48.572;13.378;2023-04-24T02:24:52;2.50;;;1.60;;
48487;SDS011;34289;48.572;13.378;2023-04-24T02:27:18;3.80;;;1.70;;
48487;SDS011;34289;48.572;13.378;2023-04-24T02:29:43;3.63;;;1.90;;
48487;SDS011;34289;48.572;13.378;2023-04-24T02:32:09;3.97;;;1.70;;
48487;SDS011;34289;48.572;13.378;2023-04-24T02:34:37;3.22;;;1.95;;
48487;SDS011;34289;48.572;13.378;2023-04-24T02:37:03;3.20;;;2.03;;
48487;SDS011;34289;48.572;13.378;2023-04-24T02:39:28;3.55;;;1.65;;
48487;SDS011;34289;48.572;13.378;2023-04-24T02:41:54;2.20;;;2.00;;
48487;SDS011;34289;48.572;13.378;2023-04-24T02:44:19;4.00;;;1.95;;
48487;SDS011;34289;48.572;13.378;2023-04-24T02:46:46;5.18;;;2.70;;
48487;SDS011;34289;48.572;13.378;2023-04-24T02:49:12;3.28;;;2.20;;
48487;SDS011;34289;48.572;13.378;2023-04-24T02:51:37;7.63;;;2.10;;
48487;SDS011;34289;48.572;13.378;2023-04-24T02:54:06;5.10;;;2.03;;
48487;SDS011;34289;48.572;13.378;2023-04-24T02:56:34;4.13;;;1.83;;
48487;SDS011;34289;48.572;13.378;2023-04-24T02:59:00;5.55;;;2.53;;
48487;SDS011;34289;48.572;13.378;2023-04-24T03:01:26;8.98;;;2.97;;
48487;SDS011;34289;48.572;13.378;2023-04-24T03:03:51;3.97;;;2.53;;
48487;SDS011;34289;48.572;13.378;2023-04-24T03:06:17;2.03;;;1.67;;
48487;SDS011;34289;48.572;13.378;2023-04-24T03:08:43;4.85;;;2.30;;
48487;SDS011;34289;48.572;13.378;2023-04-24T03:11:08;4.15;;;2.28;;
48487;SDS011;34289;48.572;13.378;2023-04-24T03:13:34;4.38;;;2.25;;
48487;SDS011;34289;48.572;13.378;2023-04-24T03:15:59;4.15;;;1.85;;
48487;SDS011;34289;48.572;13.378;2023-04-24T03:18:25;3.65;;;1.80;;
48487;SDS011;34289;48.572;13.378;2023-04-24T03:20:51;7.78;;;2.17;;
48487;SDS011;34289;48.572;13.378;2023-04-24T03:23:16;3.70;;;1.75;;
48487;SDS011;34289;48.572;13.378;2023-04-24T03:25:42;2.67;;;1.70;;
48487;SDS011;34289;48.572;13.378;2023-04-24T03:28:08;2.50;;;1.90;;
48487;SDS011;34289;48.572;13.378;2023-04-24T03:30:33;2.97;;;1.75;;
48487;SDS011;34289;48.572;13.378;2023-04-24T03:32:59;3.85;;;1.70;;
48487;SDS011;34289;48.572;13.378;2023-04-24T03:35:25;6.50;;;2.38;;
48487;SDS011;34289;48.572;13.378;2023-04-24T03:37:51;3.25;;;1.98;;
48487;SDS011;34289;48.572;13.378;2023-04-24T03:40:16;1.98;;;1.67;;
48487;SDS011;34289;48.572;13.378;2023-04-24T03:42:42;3.15;;;1.92;;
48487;SDS011;34289;48.572;13.378;2023-04-24T03:45:08;3.08;;;1.70;;
48487;SDS011;34289;48.572;13.378;2023-04-24T03:47:34;2.97;;;2.38;;
48487;SDS011;34289;48.572;13.378;2023-04-24T03:50:00;3.22;;;2.00;;
48487;SDS011;34289;48.572;13.378;2023-04-24T03:52:25;2.78;;;2.08;;
48487;SDS011;34289;48.572;13.378;2023-04-24T03:54:51;2.92;;;1.80;;
48487;SDS011;34289;48.572;13.378;2023-04-24T03:57:16;3.75;;;2.10;;
48487;SDS011;34289;48.572;13.378;2023-04-24T03:59:42;4.05;;;1.80;;
48487;SDS011;34289;48.572;13.378;2023-04-24T04:02:08;3.05;;;1.70;;
48487;SDS011;34289;48.572;13.378;2023-04-24T04:04:33;2.28;;;1.77;;
48487;SDS011;34289;48.572;13.378;2023-04-24T04:06:59;2.55;;;2.05;;
48487;SDS011;34289;48.572;13.378;2023-04-24T04:09:26;3.28;;;2.22;;
48487;SDS011;34289;48.572;13.378;2023-04-24T04:11:52;5.80;;;1.90;;
48487;SDS011;34289;48.572;13.378;2023-04-24T04:14:18;2.63;;;1.90;;
48487;SDS011;34289;48.572;13.378;2023-04-24T04:16:44;2.97;;;1.80;;
48487;SDS011;34289;48.572;13.378;2023-04-24T04:19:09;3.28;;;1.55;;
48487;SDS011;34289;48.572;13.378;2023-04-24T04:21:35;3.05;;;1.60;;
48487;SDS011;34289;48.572;13.378;2023-04-24T04:24:00;3.88;;;1.70;;
48487;SDS011;34289;48.572;13.378;2023-04-24T04:26:26;2.00;;;1.40;;
48487;SDS011;34289;48.572;13.378;2023-04-24T04:28:52;4.43;;;1.52;;
48487;SDS011;34289;48.572;13.378;2023-04-24T04:31:19;2.88;;;2.03;;
48487;SDS011;34289;48.572;13.378;2023-04-24T04:33:45;3.30;;;1.80;;
48487;SDS011;34289;48.572;13.378;2023-04-24T04:36:13;8.02;;;2.00;;
48487;SDS011;34289;48.572;13.378;2023-04-24T04:38:39;4.55;;;1.92;;
48487;SDS011;34289;48.572;13.378;2023-04-24T04:41:05;3.88;;;1.58;;
48487;SDS011;34289;48.572;13.378;2023-04-24T04:43:32;2.85;;;2.10;;
48487;SDS011;34289;48.572;13.378;2023-04-24T04:45:59;2.30;;;1.65;;
48487;SDS011;34289;48.572;13.378;2023-04-24T04:48:25;2.60;;;1.75;;
48487;SDS011;34289;48.572;13.378;2023-04-24T04:50:52;4.50;;;1.90;;
48487;SDS011;34289;48.572;13.378;2023-04-24T04:53:17;3.75;;;2.00;;
48487;SDS011;34289;48.572;13.378;2023-04-24T04:55:43;2.65;;;1.85;;
48487;SDS011;34289;48.572;13.378;2023-04-24T04:58:09;4.43;;;1.40;;
48487;SDS011;34289;48.572;13.378;2023-04-24T05:00:34;5.75;;;1.60;;
48487;SDS011;34289;48.572;13.378;2023-04-24T05:03:02;1.63;;;1.20;;
48487;SDS011;34289;48.572;13.378;2023-04-24T05:05:28;1.83;;;1.23;;
48487;SDS011;34289;48.572;13.378;2023-04-24T05:07:54;3.33;;;1.33;;
48487;SDS011;34289;48.572;13.378;2023-04-24T05:10:20;2.08;;;1.42;;
48487;SDS011;34289;48.572;13.378;2023-04-24T05:12:45;2.17;;;1.15;;
48487;SDS011;34289;48.572;13.378;2023-04-24T05:15:11;2.97;;;1.80;;
48487;SDS011;34289;48.572;13.378;2023-04-24T05:17:36;2.30;;;1.67;;
48487;SDS011;34289;48.572;13.378;2023-04-24T05:20:04;2.95;;;1.10;;
48487;SDS011;34289;48.572;13.378;2023-04-24T05:22:31;2.80;;;1.20;;
48487;SDS011;34289;48.572;13.378;2023-04-24T05:24:56;3.40;;;1.58;;
48487;SDS011;34289;48.572;13.378;2023-04-24T05:27:22;1.67;;;1.10;;
48487;SDS011;34289;48.572;13.378;2023-04-24T05:29:49;1.25;;;1.15;;
48487;SDS011;34289;48.572;13.378;2023-04-24T05:32:14;4.50;;;1.30;;
48487;SDS011;34289;48.572;13.378;2023-04-24T05:34:40;3.72;;;1.27;;
48487;SDS011;34289;48.572;13.378;2023-04-24T05:37:05;6.30;;;3.30;;
48487;SDS011;34289;48.572;13.378;2023-04-24T05:39:33;4.50;;;1.77;;
48487;SDS011;34289;48.572;13.378;2023-04-24T05:42:00;1.30;;;1.15;;
48487;SDS011;34289;48.572;13.378;2023-04-24T05:44:26;3.63;;;1.15;;
48487;SDS011;34289;48.572;13.378;2023-04-24T05:46:52;3.60;;;1.10;;
48487;SDS011;34289;48.572;13.378;2023-04-24T05:49:18;4.22;;;1.25;;
48487;SDS011;34289;48.572;13.378;2023-04-24T05:51:43;1.13;;;0.90;;
48487;SDS011;34289;48.572;13.378;2023-04-24T05:54:09;1.65;;;0.98;;
48487;SDS011;34289;48.572;13.378;2023-04-24T05:56:37;2.58;;;0.80;;
48487;SDS011;34289;48.572;13.378;2023-04-24T05:59:03;1.73;;;1.00;;
48487;SDS011;34289;48.572;13.378;2023-04-24T06:01:28;1.25;;;0.82;;
48487;SDS011;34289;48.572;13.378;2023-04-24T06:03:54;2.88;;;1.10;;
48487;SDS011;34289;48.572;13.378;2023-04-24T06:06:20;3.58;;;1.02;;
48487;SDS011;34289;48.572;13.378;2023-04-24T06:08:46;1.73;;;0.90;;
48487;SDS011;34289;48.572;13.378;2023-04-24T06:11:11;3.13;;;0.98;;
48487;SDS011;34289;48.572;13.378;2023-04-24T06:13:37;1.42;;;1.15;;
48487;SDS011;34289;48.572;13.378;2023-04-24T06:16:02;2.08;;;1.00;;
48487;SDS011;34289;48.572;13.378;2023-04-24T06:18:28;0.93;;;0.80;;
48487;SDS011;34289;48.572;13.378;2023-04-24T06:20:54;3.60;;;0.90;;
48487;SDS011;34289;48.572;13.378;2023-04-24T06:23:20;2.20;;;1.20;;
48487;SDS011;34289;48.572;13.378;2023-04-24T06:25:46;2.65;;;1.00;;
48487;SDS011;34289;48.572;13.378;2023-04-24T06:28:12;1.50;;;0.93;;
48487;SDS011;34289;48.572;13.378;2023-04-24T06:30:37;1.90;;;0.90;;
48487;SDS011;34289;48.572;13.378;2023-04-24T06:33:03;3.05;;;1.33;;
48487;SDS011;34289;48.572;13.378;2023-04-24T06:35:29;2.13;;;1.10;;
48487;SDS011;34289;48.572;13.378;2023-04-24T06:37:54;2.33;;;1.17;;
48487;SDS011;34289;48.572;13.378;2023-04-24T06:40:21;3.45;;;1.08;;
48487;SDS011;34289;48.572;13.378;2023-04-24T06:42:47;3.35;;;1.13;;
48487;SDS011;34289;48.572;13.378;2023-04-24T06:45:12;3.40;;;1.30;;
48487;SDS011;34289;48.572;13.378;2023-04-24T06:47:38;4.13;;;1.20;;
48487;SDS011;34289;48.572;13.378;2023-04-24T06:50:04;3.33;;;1.45;;
48487;SDS011;34289;48.572;13.378;2023-04-24T06:52:30;3.55;;;1.35;;
48487;SDS011;34289;48.572;13.378;2023-04-24T06:55:04;4.18;;;1.42;;
48487;SDS011;34289;48.572;13.378;2023-04-24T06:57:30;3.13;;;1.20;;
48487;SDS011;34289;48.572;13.378;2023-04-24T06:59:56;5.53;;;1.48;;
48487;SDS011;34289;48.572;13.378;2023-04-24T07:02:22;4.38;;;1.20;;
48487;SDS011;34289;48.572;13.378;2023-04-24T07:04:47;5.65;;;1.50;;
48487;SDS011;34289;48.572;13.378;2023-04-24T07:07:13;1.98;;;1.10;;
48487;SDS011;34289;48.572;13.378;2023-04-24T07:09:39;1.83;;;1.17;;
48487;SDS011;34289;48.572;13.378;2023-04-24T07:12:09;3.60;;;1.20;;
48487;SDS011;34289;48.572;13.378;2023-04-24T07:14:35;5.03;;;1.33;;
48487;SDS011;34289;48.572;13.378;2023-04-24T07:17:04;3.80;;;1.15;;
48487;SDS011;34289;48.572;13.378;2023-04-24T07:19:31;8.77;;;1.48;;
48487;SDS011;34289;48.572;13.378;2023-04-24T07:21:58;3.35;;;1.10;;
48487;SDS011;34289;48.572;13.378;2023-04-24T07:24:24;1.80;;;0.93;;
48487;SDS011;34289;48.572;13.378;2023-04-24T07:26:51;1.20;;;1.05;;
48487;SDS011;34289;48.572;13.378;2023-04-24T07:29:17;2.47;;;1.13;;
48487;SDS011;34289;48.572;13.378;2023-04-24T07:31:43;1.55;;;1.00;;
48487;SDS011;34289;48.572;13.378;2023-04-24T07:34:08;2.13;;;1.08;;
48487;SDS011;34289;48.572;13.378;2023-04-24T07:36:34;1.00;;;0.90;;
48487;SDS011;34289;48.572;13.378;2023-04-24T07:39:00;2.20;;;1.17;;
48487;SDS011;34289;48.572;13.378;2023-04-24T07:41:26;1.50;;;1.00;;
48487;SDS011;34289;48.572;13.378;2023-04-24T07:43:53;3.88;;;1.15;;
48487;SDS011;34289;48.572;13.378;2023-04-24T07:46:18;2.90;;;0.93;;
48487;SDS011;34289;48.572;13.378;2023-04-24T07:48:45;7.00;;;1.33;;
48487;SDS011;34289;48.572;13.378;2023-04-24T07:51:12;2.83;;;1.00;;
48487;SDS011;34289;48.572;13.378;2023-04-24T07:53:39;2.78;;;1.10;;
48487;SDS011;34289;48.572;13.378;2023-04-24T07:56:05;2.58;;;1.00;;
48487;SDS011;34289;48.572;13.378;2023-04-24T07:58:30;2.05;;;1.00;;
48487;SDS011;34289;48.572;13.378;2023-04-24T08:00:56;3.40;;;1.40;;
48487;SDS011;34289;48.572;13.378;2023-04-24T08:03:24;4.45;;;1.45;;
48487;SDS011;34289;48.572;13.378;2023-04-24T08:05:50;1.98;;;1.38;;
48487;SDS011;34289;48.572;13.378;2023-04-24T08:08:16;2.60;;;1.80;;
48487;SDS011;34289;48.572;13.378;2023-04-24T08:10:42;1.65;;;1.13;;
48487;SDS011;34289;48.572;13.378;2023-04-24T08:13:08;1.95;;;0.98;;
48487;SDS011;34289;48.572;13.378;2023-04-24T08:15:33;1.75;;;1.25;;
48487;SDS011;34289;48.572;13.378;2023-04-24T08:17:59;2.00;;;1.38;;
48487;SDS011;34289;48.572;13.378;2023-04-24T08:20:25;1.80;;;1.13;;
48487;SDS011;34289;48.572;13.378;2023-04-24T08:22:50;1.95;;;1.10;;
48487;SDS011;34289;48.572;13.378;2023-04-24T08:25:16;2.92;;;1.33;;
48487;SDS011;34289;48.572;13.378;2023-04-24T08:27:42;1.95;;;1.00;;
48487;SDS011;34289;48.572;13.378;2023-04-24T08:30:08;2.08;;;1.00;;
48487;SDS011;34289;48.572;13.378;2023-04-24T08:32:35;2.70;;;1.52;;
48487;SDS011;34289;48.572;13.378;2023-04-24T08:35:02;4.72;;;1.25;;
48487;SDS011;34289;48.572;13.378;2023-04-24T08:37:28;4.35;;;1.35;;
48487;SDS011;34289;48.572;13.378;2023-04-24T08:39:54;2.13;;;1.00;;
48487;SDS011;34289;48.572;13.378;2023-04-24T08:42:20;1.95;;;0.85;;
48487;SDS011;34289;48.572;13.378;2023-04-24T08:44:48;2.35;;;1.08;;
48487;SDS011;34289;48.572;13.378;2023-04-24T08:47:14;1.50;;;1.00;;
48487;SDS011;34289;48.572;13.378;2023-04-24T08:49:40;1.67;;;0.70;;
48487;SDS011;34289;48.572;13.378;2023-04-24T08:52:07;1.23;;;0.95;;
48487;SDS011;34289;48.572;13.378;2023-04-24T08:54:36;1.13;;;0.70;;
48487;SDS011;34289;48.572;13.378;2023-04-24T08:57:03;3.45;;;1.17;;
48487;SDS011;34289;48.572;13.378;2023-04-24T08:59:29;3.63;;;1.17;;
48487;SDS011;34289;48.572;13.378;2023-04-24T09:01:56;1.85;;;0.80;;
48487;SDS011;34289;48.572;13.378;2023-04-24T09:04:22;1.27;;;0.90;;
48487;SDS011;34289;48.572;13.378;2023-04-24T09:06:58;2.20;;;0.77;;
48487;SDS011;34289;48.572;13.378;2023-04-24T09:09:25;2.75;;;0.80;;
48487;SDS011;34289;48.572;13.378;2023-04-24T09:11:51;1.20;;;0.70;;
48487;SDS011;34289;48.572;13.378;2023-04-24T09:14:20;2.15;;;0.80;;
48487;SDS011;34289;48.572;13.378;2023-04-24T09:16:47;1.70;;;0.80;;
48487;SDS011;34289;48.572;13.378;2023-04-24T09:19:13;1.95;;;0.98;;
48487;SDS011;34289;48.572;13.378;2023-04-24T09:21:38;2.15;;;1.05;;
48487;SDS011;34289;48.572;13.378;2023-04-24T09:24:07;2.45;;;1.05;;
48487;SDS011;34289;48.572;13.378;2023-04-24T09:26:39;3.80;;;1.23;;
48487;SDS011;34289;48.572;13.378;2023-04-24T09:29:05;1.52;;;1.02;;
48487;SDS011;34289;48.572;13.378;2023-04-24T09:31:31;0.80;;;0.77;;
48487;SDS011;34289;48.572;13.378;2023-04-24T09:34:01;2.45;;;1.00;;
48487;SDS011;34289;48.572;13.378;2023-04-24T09:36:31;1.95;;;1.17;;
48487;SDS011;34289;48.572;13.378;2023-04-24T09:38:58;1.70;;;1.15;;
48487;SDS011;34289;48.572;13.378;2023-04-24T09:41:29;2.20;;;1.00;;
48487;SDS011;34289;48.572;13.378;2023-04-24T09:43:57;2.33;;;0.90;;
48487;SDS011;34289;48.572;13.378;2023-04-24T09:46:36;2.20;;;1.10;;
48487;SDS011;34289;48.572;13.378;2023-04-24T09:49:12;1.52;;;0.90;;
48487;SDS011;34289;48.572;13.378;2023-04-24T09:51:40;1.65;;;1.13;;
48487;SDS011;34289;48.572;13.378;2023-04-24T09:54:16;4.97;;;1.95;;
48487;SDS011;34289;48.572;13.378;2023-04-24T09:56:50;3.42;;;1.50;;
48487;SDS011;34289;48.572;13.378;2023-04-24T09:59:16;2.55;;;1.20;;
48487;SDS011;34289;48.572;13.378;2023-04-24T10:01:44;3.40;;;2.35;;
48487;SDS011;34289;48.572;13.378;2023-04-24T10:04:16;3.78;;;1.33;;
48487;SDS011;34289;48.572;13.378;2023-04-24T10:06:49;2.95;;;1.23;;
48487;SDS011;34289;48.572;13.378;2023-04-24T10:09:16;3.40;;;1.38;;
48487;SDS011;34289;48.572;13.378;2023-04-24T10:11:44;4.15;;;1.50;;
48487;SDS011;34289;48.572;13.378;2023-04-24T10:14:15;3.33;;;1.20;;
48487;SDS011;34289;48.572;13.378;2023-04-24T10:16:54;4.90;;;1.10;;
48487;SDS011;34289;48.572;13.378;2023-04-24T10:19:22;2.78;;;0.70;;
48487;SDS011;34289;48.572;13.378;2023-04-24T10:21:51;4.20;;;1.13;;
48487;SDS011;34289;48.572;13.378;2023-04-24T10:24:18;3.00;;;1.10;;
48487;SDS011;34289;48.572;13.378;2023-04-24T10:26:46;2.35;;;1.10;;
48487;SDS011;34289;48.572;13.378;2023-04-24T10:29:13;5.55;;;1.10;;
48487;SDS011;34289;48.572;13.378;2023-04-24T10:31:40;1.40;;;0.80;;
48487;SDS011;34289;48.572;13.378;2023-04-24T10:34:06;1.13;;;0.80;;
48487;SDS011;34289;48.572;13.378;2023-04-24T10:36:34;2.50;;;0.77;;
48487;SDS011;34289;48.572;13.378;2023-04-24T10:39:02;1.00;;;0.60;;
48487;SDS011;34289;48.572;13.378;2023-04-24T10:41:31;1.08;;;0.80;;
48487;SDS011;34289;48.572;13.378;2023-04-24T10:44:10;2.08;;;0.80;;
48487;SDS011;34289;48.572;13.378;2023-04-24T10:46:37;2.22;;;0.73;;
48487;SDS011;34289;48.572;13.378;2023-04-24T10:49:04;1.67;;;0.65;;
48487;SDS011;34289;48.572;13.378;2023-04-24T10:51:44;0.85;;;0.52;;
48487;SDS011;34289;48.572;13.378;2023-04-24T10:54:23;1.15;;;0.70;;
48487;SDS011;34289;48.572;13.378;2023-04-24T10:56:49;1.05;;;0.57;;
48487;SDS011;34289;48.572;13.378;2023-04-24T10:59:26;1.40;;;0.73;;
48487;SDS011;34289;48.572;13.378;2023-04-24T11:01:59;2.40;;;0.90;;
48487;SDS011;34289;48.572;13.378;2023-04-24T11:04:32;7.82;;;0.90;;
48487;SDS011;34289;48.572;13.378;2023-04-24T11:06:58;1.00;;;0.82;;
48487;SDS011;34289;48.572;13.378;2023-04-24T11:09:28;0.75;;;0.65;;
48487;SDS011;34289;48.572;13.378;2023-04-24T11:12:02;3.92;;;0.50;;
48487;SDS011;34289;48.572;13.378;2023-04-24T11:17:34;1.00;;;0.60;;
48487;SDS011;34289;48.572;13.378;2023-04-24T11:20:09;1.58;;;0.98;;
48487;SDS011;34289;48.572;13.378;2023-04-24T11:22:36;3.70;;;0.70;;
48487;SDS011;34289;48.572;13.378;2023-04-24T11:25:06;3.00;;;1.00;;
48487;SDS011;34289;48.572;13.378;2023-04-24T11:27:40;3.67;;;0.95;;
48487;SDS011;34289;48.572;13.378;2023-04-24T11:30:08;2.67;;;0.90;;
48487;SDS011;34289;48.572;13.378;2023-04-24T11:32:39;1.00;;;0.50;;
48487;SDS011;34289;48.572;13.378;2023-04-24T11:35:07;1.60;;;0.80;;
48487;SDS011;34289;48.572;13.378;2023-04-24T11:37:39;1.27;;;0.80;;
48487;SDS011;34289;48.572;13.378;2023-04-24T11:40:06;2.45;;;0.70;;
48487;SDS011;34289;48.572;13.378;2023-04-24T11:42:34;1.23;;;0.90;;
48487;SDS011;34289;48.572;13.378;2023-04-24T11:45:01;1.35;;;0.95;;
48487;SDS011;34289;48.572;13.378;2023-04-24T11:47:32;1.60;;;0.80;;
48487;SDS011;34289;48.572;13.378;2023-04-24T11:50:00;2.50;;;0.90;;
48487;SDS011;34289;48.572;13.378;2023-04-24T11:52:27;1.08;;;0.90;;
48487;SDS011;34289;48.572;13.378;2023-04-24T11:54:54;2.08;;;0.90;;
48487;SDS011;34289;48.572;13.378;2023-04-24T11:57:20;2.85;;;1.20;;
48487;SDS011;34289;48.572;13.378;2023-04-24T11:59:46;2.90;;;1.05;;
48487;SDS011;34289;48.572;13.378;2023-04-24T12:04:51;1.73;;;0.98;;
48487;SDS011;34289;48.572;13.378;2023-04-24T12:07:17;1.33;;;0.98;;
48487;SDS011;34289;48.572;13.378;2023-04-24T12:12:10;1.45;;;0.80;;
48487;SDS011;34289;48.572;13.378;2023-04-24T12:14:47;1.60;;;0.90;;
48487;SDS011;34289;48.572;13.378;2023-04-24T12:17:15;1.77;;;0.90;;
48487;SDS011;34289;48.572;13.378;2023-04-24T12:19:46;0.82;;;0.80;;
48487;SDS011;34289;48.572;13.378;2023-04-24T12:22:12;1.95;;;0.95;;
48487;SDS011;34289;48.572;13.378;2023-04-24T12:24:58;3.80;;;0.85;;
48487;SDS011;34289;48.572;13.378;2023-04-24T12:27:31;1.33;;;0.90;;
48487;SDS011;34289;48.572;13.378;2023-04-24T12:30:01;0.73;;;0.70;;
48487;SDS011;34289;48.572;13.378;2023-04-24T12:32:29;0.80;;;0.70;;
48487;SDS011;34289;48.572;13.378;2023-04-24T12:34:55;2.40;;;0.90;;
48487;SDS011;34289;48.572;13.378;2023-04-24T12:37:25;1.58;;;0.90;;
48487;SDS011;34289;48.572;13.378;2023-04-24T12:39:58;1.38;;;1.00;;
48487;SDS011;34289;48.572;13.378;2023-04-24T12:42:31;2.95;;;0.80;;
48487;SDS011;34289;48.572;13.378;2023-04-24T12:44:59;2.42;;;1.08;;
48487;SDS011;34289;48.572;13.378;2023-04-24T12:47:26;1.25;;;0.73;;
48487;SDS011;34289;48.572;13.378;2023-04-24T12:49:53;1.83;;;0.90;;
48487;SDS011;34289;48.572;13.378;2023-04-24T12:52:20;1.25;;;0.88;;
48487;SDS011;34289;48.572;13.378;2023-04-24T12:54:47;1.33;;;0.98;;
48487;SDS011;34289;48.572;13.378;2023-04-24T12:57:12;1.83;;;1.08;;
48487;SDS011;34289;48.572;13.378;2023-04-24T12:59:38;1.17;;;1.00;;
48487;SDS011;34289;48.572;13.378;2023-04-24T13:02:04;3.67;;;1.10;;
48487;SDS011;34289;48.572;13.378;2023-04-24T13:04:31;0.98;;;0.85;;
48487;SDS011;34289;48.572;13.378;2023-04-24T13:06:57;2.25;;;1.10;;
48487;SDS011;34289;48.572;13.378;2023-04-24T13:09:23;1.60;;;0.77;;
48487;SDS011;34289;48.572;13.378;2023-04-24T13:11:49;2.53;;;0.95;;
48487;SDS011;34289;48.572;13.378;2023-04-24T13:14:15;1.42;;;0.98;;
48487;SDS011;34289;48.572;13.378;2023-04-24T13:16:40;3.47;;;1.00;;
48487;SDS011;34289;48.572;13.378;2023-04-24T13:19:06;0.95;;;0.80;;
48487;SDS011;34289;48.572;13.378;2023-04-24T13:21:32;1.98;;;0.90;;
48487;SDS011;34289;48.572;13.378;2023-04-24T13:23:57;4.45;;;0.90;;
48487;SDS011;34289;48.572;13.378;2023-04-24T13:26:24;0.75;;;0.75;;
48487;SDS011;34289;48.572;13.378;2023-04-24T13:28:50;3.15;;;0.80;;
48487;SDS011;34289;48.572;13.378;2023-04-24T13:31:15;1.35;;;0.70;;
48487;SDS011;34289;48.572;13.378;2023-04-24T13:33:41;1.65;;;0.80;;
48487;SDS011;34289;48.572;13.378;2023-04-24T13:36:07;4.72;;;0.90;;
48487;SDS011;34289;48.572;13.378;2023-04-24T13:38:33;1.20;;;0.70;;
48487;SDS011;34289;48.572;13.378;2023-04-24T13:40:59;0.90;;;0.80;;
48487;SDS011;34289;48.572;13.378;2023-04-24T13:43:25;1.10;;;0.57;;
48487;SDS011;34289;48.572;13.378;2023-04-24T13:45:51;2.13;;;0.70;;
48487;SDS011;34289;48.572;13.378;2023-04-24T13:48:17;0.88;;;0.68;;
48487;SDS011;34289;48.572;13.378;2023-04-24T13:50:43;0.77;;;0.60;;
48487;SDS011;34289;48.572;13.378;2023-04-24T13:53:09;0.88;;;0.70;;
48487;SDS011;34289;48.572;13.378;2023-04-24T13:55:35;1.45;;;0.80;;
48487;SDS011;34289;48.572;13.378;2023-04-24T13:58:01;1.45;;;0.70;;
48487;SDS011;34289;48.572;13.378;2023-04-24T14:00:27;0.95;;;0.70;;
48487;SDS011;34289;48.572;13.378;2023-04-24T14:02:53;0.80;;;0.70;;
48487;SDS011;34289;48.572;13.378;2023-04-24T14:05:19;1.02;;;0.80;;
48487;SDS011;34289;48.572;13.378;2023-04-24T14:07:45;3.50;;;0.75;;
48487;SDS011;34289;48.572;13.378;2023-04-24T14:10:11;1.25;;;0.70;;
48487;SDS011;34289;48.572;13.378;2023-04-24T14:12:37;1.15;;;0.60;;
48487;SDS011;34289;48.572;13.378;2023-04-24T14:15:03;2.13;;;0.98;;
48487;SDS011;34289;48.572;13.378;2023-04-24T14:17:29;3.55;;;0.90;;
48487;SDS011;34289;48.572;13.378;2023-04-24T14:19:55;2.85;;;1.13;;
48487;SDS011;34289;48.572;13.378;2023-04-24T14:22:21;0.90;;;0.80;;
48487;SDS011;34289;48.572;13.378;2023-04-24T14:24:47;1.67;;;0.90;;
48487;SDS011;34289;48.572;13.378;2023-04-24T14:27:13;1.05;;;0.88;;
48487;SDS011;34289;48.572;13.378;2023-04-24T14:29:39;1.20;;;0.70;;
48487;SDS011;34289;48.572;13.378;2023-04-24T14:32:05;3.53;;;1.25;;
48487;SDS011;34289;48.572;13.378;2023-04-24T14:34:31;1.13;;;0.90;;
48487;SDS011;34289;48.572;13.378;2023-04-24T14:36:56;1.33;;;0.70;;
48487;SDS011;34289;48.572;13.378;2023-04-24T14:39:23;3.58;;;1.08;;